Bustins Island, Maine
Current Conditions -  °F | °C
As of 2:51 AM on Sunday 26 Oct 2014 (Local Time) from KPWM Reporting Station
Clear Clear  
Wind Chill: 51°   Ceiling: Unl
Heat Index: 51°   Visibility: 10mi
Dew Point: 46°   Wind: 3mph
Humidity: 83%   Direction: 20°NNE
Pressure: 29.41"   Gusts: NA
Location:  43.8°N, 70.07°W
Report Text: KPWM 260651Z AUTO 02003KT 10SM CLR 11/08 A2941 RMK AO2 SLP957 T01060078
Loading
Personal Weather Stations






























Interactive Weather Map
Tropical Storm Tracking
New forecast layout! Learn more

10-Day Weather Forecast

Advertisements
Track Severe Weather on mobile